sensor_id;sensor_type;location;lat;lon;timestamp;temperature;humidity
27413;DHT22;14871;52.702;5.230;2023-02-12T00:01:10;8.70;99.90
27413;DHT22;14871;52.702;5.230;2023-02-12T00:03:37;8.70;99.90
27413;DHT22;14871;52.702;5.230;2023-02-12T00:06:03;8.70;99.90
27413;DHT22;14871;52.702;5.230;2023-02-12T00:08:29;8.60;99.90
27413;DHT22;14871;52.702;5.230;2023-02-12T00:10:54;8.70;99.90
27413;DHT22;14871;52.702;5.230;2023-02-12T00:13:20;8.80;99.90
27413;DHT22;14871;52.702;5.230;2023-02-12T00:15:45;8.80;99.90
27413;DHT22;14871;52.702;5.230;2023-02-12T00:18:11;8.80;99.90
27413;DHT22;14871;52.702;5.230;2023-02-12T00:20:37;8.60;99.90
27413;DHT22;14871;52.702;5.230;2023-02-12T00:23:04;8.50;99.90
27413;DHT22;14871;52.702;5.230;2023-02-12T00:25:30;8.60;99.90
27413;DHT22;14871;52.702;5.230;2023-02-12T00:27:55;8.50;99.90
27413;DHT22;14871;52.702;5.230;2023-02-12T00:30:21;8.50;99.90
27413;DHT22;14871;52.702;5.230;2023-02-12T00:32:47;8.50;99.90
27413;DHT22;14871;52.702;5.230;2023-02-12T00:35:12;8.50;99.90
27413;DHT22;14871;52.702;5.230;2023-02-12T00:37:38;8.50;99.90
27413;DHT22;14871;52.702;5.230;2023-02-12T00:40:04;8.50;99.90
27413;DHT22;14871;52.702;5.230;2023-02-12T00:42:30;8.50;99.90
27413;DHT22;14871;52.702;5.230;2023-02-12T00:44:56;8.30;99.90
27413;DHT22;14871;52.702;5.230;2023-02-12T00:47:22;8.30;99.90
27413;DHT22;14871;52.702;5.230;2023-02-12T00:49:47;8.40;99.90
27413;DHT22;14871;52.702;5.230;2023-02-12T00:52:13;8.40;99.90
27413;DHT22;14871;52.702;5.230;2023-02-12T00:54:39;8.40;99.90
27413;DHT22;14871;52.702;5.230;2023-02-12T00:57:04;8.40;99.90
27413;DHT22;14871;52.702;5.230;2023-02-12T00:59:30;8.30;99.90
27413;DHT22;14871;52.702;5.230;2023-02-12T01:01:56;8.30;99.90
27413;DHT22;14871;52.702;5.230;2023-02-12T01:04:22;8.30;99.90
27413;DHT22;14871;52.702;5.230;2023-02-12T01:06:47;8.30;99.90
27413;DHT22;14871;52.702;5.230;2023-02-12T01:09:13;8.30;99.90
27413;DHT22;14871;52.702;5.230;2023-02-12T01:11:40;8.40;99.90
27413;DHT22;14871;52.702;5.230;2023-02-12T01:14:06;8.30;99.90
27413;DHT22;14871;52.702;5.230;2023-02-12T01:16:32;8.20;99.90
27413;DHT22;14871;52.702;5.230;2023-02-12T01:19:00;8.30;99.90
27413;DHT22;14871;52.702;5.230;2023-02-12T01:21:28;8.20;99.90
27413;DHT22;14871;52.702;5.230;2023-02-12T01:23:55;8.20;99.90
27413;DHT22;14871;52.702;5.230;2023-02-12T01:26:21;8.20;99.90
27413;DHT22;14871;52.702;5.230;2023-02-12T01:28:52;8.20;99.90
27413;DHT22;14871;52.702;5.230;2023-02-12T01:31:21;8.20;99.90
27413;DHT22;14871;52.702;5.230;2023-02-12T01:33:52;8.20;99.90
27413;DHT22;14871;52.702;5.230;2023-02-12T01:36:18;8.10;99.90
27413;DHT22;14871;52.702;5.230;2023-02-12T01:38:44;8.10;99.90
27413;DHT22;14871;52.702;5.230;2023-02-12T01:41:14;8.10;99.90
27413;DHT22;14871;52.702;5.230;2023-02-12T01:43:41;8.10;99.90
27413;DHT22;14871;52.702;5.230;2023-02-12T01:46:08;8.10;99.90
27413;DHT22;14871;52.702;5.230;2023-02-12T01:48:38;8.10;99.90
27413;DHT22;14871;52.702;5.230;2023-02-12T01:51:06;8.10;99.90
27413;DHT22;14871;52.702;5.230;2023-02-12T01:53:37;8.10;99.90
27413;DHT22;14871;52.702;5.230;2023-02-12T01:56:04;8.00;99.90
27413;DHT22;14871;52.702;5.230;2023-02-12T01:58:34;8.00;99.90
27413;DHT22;14871;52.702;5.230;2023-02-12T02:01:02;8.00;99.90
27413;DHT22;14871;52.702;5.230;2023-02-12T02:03:28;7.90;99.90
27413;DHT22;14871;52.702;5.230;2023-02-12T02:06:43;7.90;99.90
27413;DHT22;14871;52.702;5.230;2023-02-12T02:08:48;7.90;99.90
27413;DHT22;14871;52.702;5.230;2023-02-12T02:11:15;7.80;99.90
27413;DHT22;14871;52.702;5.230;2023-02-12T02:13:59;7.80;99.90
27413;DHT22;14871;52.702;5.230;2023-02-12T02:16:54;7.80;99.90
27413;DHT22;14871;52.702;5.230;2023-02-12T02:27:34;7.80;99.90
27413;DHT22;14871;52.702;5.230;2023-02-12T02:32:46;7.70;99.90
27413;DHT22;14871;52.702;5.230;2023-02-12T02:35:31;7.70;99.90
27413;DHT22;14871;52.702;5.230;2023-02-12T02:38:21;7.80;99.90
27413;DHT22;14871;52.702;5.230;2023-02-12T02:43:42;7.80;99.90
27413;DHT22;14871;52.702;5.230;2023-02-12T02:46:35;7.70;99.90
27413;DHT22;14871;52.702;5.230;2023-02-12T02:49:05;7.70;99.90
27413;DHT22;14871;52.702;5.230;2023-02-12T02:51:35;7.70;99.90
27413;DHT22;14871;52.702;5.230;2023-02-12T02:54:10;7.70;99.90
27413;DHT22;14871;52.702;5.230;2023-02-12T02:56:38;7.70;99.90
27413;DHT22;14871;52.702;5.230;2023-02-12T02:59:10;7.70;99.90
27413;DHT22;14871;52.702;5.230;2023-02-12T03:01:47;7.70;99.90
27413;DHT22;14871;52.702;5.230;2023-02-12T03:04:20;7.70;99.90
27413;DHT22;14871;52.702;5.230;2023-02-12T03:09:39;7.80;99.90
27413;DHT22;14871;52.702;5.230;2023-02-12T03:15:11;7.80;99.90
27413;DHT22;14871;52.702;5.230;2023-02-12T03:17:45;7.80;99.90
27413;DHT22;14871;52.702;5.230;2023-02-12T03:22:46;7.90;99.90
27413;DHT22;14871;52.702;5.230;2023-02-12T03:25:25;7.90;99.90
27413;DHT22;14871;52.702;5.230;2023-02-12T03:27:59;7.90;99.90
27413;DHT22;14871;52.702;5.230;2023-02-12T03:30:39;7.90;99.90
27413;DHT22;14871;52.702;5.230;2023-02-12T03:33:19;7.90;99.90
27413;DHT22;14871;52.702;5.230;2023-02-12T03:36:17;8.00;99.90
27413;DHT22;14871;52.702;5.230;2023-02-12T03:38:48;7.90;99.90
27413;DHT22;14871;52.702;5.230;2023-02-12T03:41:30;8.00;99.90
27413;DHT22;14871;52.702;5.230;2023-02-12T03:44:07;8.00;99.90
27413;DHT22;14871;52.702;5.230;2023-02-12T03:49:31;8.10;99.90
27413;DHT22;14871;52.702;5.230;2023-02-12T03:52:00;8.10;99.90
27413;DHT22;14871;52.702;5.230;2023-02-12T03:54:27;8.10;99.90
27413;DHT22;14871;52.702;5.230;2023-02-12T03:59:30;8.00;99.90
27413;DHT22;14871;52.702;5.230;2023-02-12T04:01:58;8.10;99.90
27413;DHT22;14871;52.702;5.230;2023-02-12T04:04:24;8.10;99.90
27413;DHT22;14871;52.702;5.230;2023-02-12T04:06:51;8.10;99.90
27413;DHT22;14871;52.702;5.230;2023-02-12T04:09:18;8.10;99.90
27413;DHT22;14871;52.702;5.230;2023-02-12T04:14:43;8.10;99.90
27413;DHT22;14871;52.702;5.230;2023-02-12T04:17:30;8.20;99.90
27413;DHT22;14871;52.702;5.230;2023-02-12T04:22:46;8.30;99.90
27413;DHT22;14871;52.702;5.230;2023-02-12T04:30:42;8.30;99.90
27413;DHT22;14871;52.702;5.230;2023-02-12T04:33:11;8.30;99.90
27413;DHT22;14871;52.702;5.230;2023-02-12T04:38:19;8.40;99.90
27413;DHT22;14871;52.702;5.230;2023-02-12T04:40:47;8.50;99.90
27413;DHT22;14871;52.702;5.230;2023-02-12T04:43:13;8.30;99.90
27413;DHT22;14871;52.702;5.230;2023-02-12T04:45:39;8.40;99.90
27413;DHT22;14871;52.702;5.230;2023-02-12T04:48:05;8.30;99.90
27413;DHT22;14871;52.702;5.230;2023-02-12T04:50:38;8.50;99.90
27413;DHT22;14871;52.702;5.230;2023-02-12T04:53:05;8.30;99.90
27413;DHT22;14871;52.702;5.230;2023-02-12T04:55:31;8.30;99.90
27413;DHT22;14871;52.702;5.230;2023-02-12T04:57:57;8.40;99.90
27413;DHT22;14871;52.702;5.230;2023-02-12T05:00:22;8.40;99.90
27413;DHT22;14871;52.702;5.230;2023-02-12T05:02:48;8.40;99.90
27413;DHT22;14871;52.702;5.230;2023-02-12T05:05:14;8.40;99.90
27413;DHT22;14871;52.702;5.230;2023-02-12T05:07:39;8.50;99.90
27413;DHT22;14871;52.702;5.230;2023-02-12T05:10:05;8.50;99.90
27413;DHT22;14871;52.702;5.230;2023-02-12T05:12:31;8.50;99.90
27413;DHT22;14871;52.702;5.230;2023-02-12T05:14:57;8.40;99.90
27413;DHT22;14871;52.702;5.230;2023-02-12T05:17:23;8.50;99.90
27413;DHT22;14871;52.702;5.230;2023-02-12T05:19:49;8.50;99.90
27413;DHT22;14871;52.702;5.230;2023-02-12T05:22:15;8.50;99.90
27413;DHT22;14871;52.702;5.230;2023-02-12T05:24:41;8.40;99.90
27413;DHT22;14871;52.702;5.230;2023-02-12T05:27:06;8.50;99.90
27413;DHT22;14871;52.702;5.230;2023-02-12T05:29:36;8.40;99.90
27413;DHT22;14871;52.702;5.230;2023-02-12T05:32:02;8.50;99.90
27413;DHT22;14871;52.702;5.230;2023-02-12T05:34:28;8.40;99.90
27413;DHT22;14871;52.702;5.230;2023-02-12T05:36:54;8.50;99.90
27413;DHT22;14871;52.702;5.230;2023-02-12T05:39:19;8.50;99.90
27413;DHT22;14871;52.702;5.230;2023-02-12T05:41:45;8.50;99.90
27413;DHT22;14871;52.702;5.230;2023-02-12T05:44:10;8.60;99.90
27413;DHT22;14871;52.702;5.230;2023-02-12T05:46:37;8.60;99.90
27413;DHT22;14871;52.702;5.230;2023-02-12T05:49:03;8.60;99.90
27413;DHT22;14871;52.702;5.230;2023-02-12T05:51:29;8.70;99.90
27413;DHT22;14871;52.702;5.230;2023-02-12T05:53:58;8.70;99.90
27413;DHT22;14871;52.702;5.230;2023-02-12T05:56:27;8.70;99.90
27413;DHT22;14871;52.702;5.230;2023-02-12T05:59:04;8.70;99.90
27413;DHT22;14871;52.702;5.230;2023-02-12T06:01:36;8.70;99.90
27413;DHT22;14871;52.702;5.230;2023-02-12T06:04:04;8.80;99.90
27413;DHT22;14871;52.702;5.230;2023-02-12T06:06:31;8.70;99.90
27413;DHT22;14871;52.702;5.230;2023-02-12T06:08:59;8.80;99.90
27413;DHT22;14871;52.702;5.230;2023-02-12T06:11:25;8.80;99.90
27413;DHT22;14871;52.702;5.230;2023-02-12T06:13:51;8.70;99.90
27413;DHT22;14871;52.702;5.230;2023-02-12T06:18:43;8.80;99.90
27413;DHT22;14871;52.702;5.230;2023-02-12T06:21:09;8.80;99.90
27413;DHT22;14871;52.702;5.230;2023-02-12T06:23:35;8.70;99.90
27413;DHT22;14871;52.702;5.230;2023-02-12T06:26:00;8.80;99.90
27413;DHT22;14871;52.702;5.230;2023-02-12T06:28:26;8.70;99.90
27413;DHT22;14871;52.702;5.230;2023-02-12T06:30:51;8.70;99.90
27413;DHT22;14871;52.702;5.230;2023-02-12T06:33:17;8.70;99.90
27413;DHT22;14871;52.702;5.230;2023-02-12T06:35:43;8.70;99.90
27413;DHT22;14871;52.702;5.230;2023-02-12T06:38:09;8.70;99.90
27413;DHT22;14871;52.702;5.230;2023-02-12T06:40:35;8.70;99.90
27413;DHT22;14871;52.702;5.230;2023-02-12T06:43:00;8.70;99.90
27413;DHT22;14871;52.702;5.230;2023-02-12T06:45:26;8.80;99.90
27413;DHT22;14871;52.702;5.230;2023-02-12T06:47:51;8.80;99.90
27413;DHT22;14871;52.702;5.230;2023-02-12T06:50:17;8.90;99.90
27413;DHT22;14871;52.702;5.230;2023-02-12T06:52:43;8.80;99.90
27413;DHT22;14871;52.702;5.230;2023-02-12T06:55:09;8.90;99.90
27413;DHT22;14871;52.702;5.230;2023-02-12T06:57:34;8.80;99.90
27413;DHT22;14871;52.702;5.230;2023-02-12T07:00:00;8.80;99.90
27413;DHT22;14871;52.702;5.230;2023-02-12T07:02:25;8.80;99.90
27413;DHT22;14871;52.702;5.230;2023-02-12T07:04:51;8.90;99.90
27413;DHT22;14871;52.702;5.230;2023-02-12T07:07:17;8.90;99.90
27413;DHT22;14871;52.702;5.230;2023-02-12T07:09:42;8.70;99.90
27413;DHT22;14871;52.702;5.230;2023-02-12T07:12:08;8.80;99.90
27413;DHT22;14871;52.702;5.230;2023-02-12T07:14:33;8.80;99.90
27413;DHT22;14871;52.702;5.230;2023-02-12T07:16:59;8.80;99.90
27413;DHT22;14871;52.702;5.230;2023-02-12T07:19:28;9.00;99.90
27413;DHT22;14871;52.702;5.230;2023-02-12T07:21:54;9.00;99.90
27413;DHT22;14871;52.702;5.230;2023-02-12T07:24:20;9.00;99.90
27413;DHT22;14871;52.702;5.230;2023-02-12T07:26:45;9.00;99.90
27413;DHT22;14871;52.702;5.230;2023-02-12T07:29:11;9.10;99.90
27413;DHT22;14871;52.702;5.230;2023-02-12T07:31:37;9.00;99.90
27413;DHT22;14871;52.702;5.230;2023-02-12T07:34:03;9.00;99.90
27413;DHT22;14871;52.702;5.230;2023-02-12T07:36:30;9.10;99.90
27413;DHT22;14871;52.702;5.230;2023-02-12T07:38:57;9.10;99.90
27413;DHT22;14871;52.702;5.230;2023-02-12T07:41:24;9.10;99.90
27413;DHT22;14871;52.702;5.230;2023-02-12T07:43:58;9.20;99.90
27413;DHT22;14871;52.702;5.230;2023-02-12T07:46:30;9.20;99.90
27413;DHT22;14871;52.702;5.230;2023-02-12T07:48:57;9.30;99.90
27413;DHT22;14871;52.702;5.230;2023-02-12T07:51:23;9.30;99.90
27413;DHT22;14871;52.702;5.230;2023-02-12T07:53:50;9.30;99.90
27413;DHT22;14871;52.702;5.230;2023-02-12T07:58:42;9.30;99.90
27413;DHT22;14871;52.702;5.230;2023-02-12T08:01:17;9.40;99.90
27413;DHT22;14871;52.702;5.230;2023-02-12T08:03:44;9.30;99.90
27413;DHT22;14871;52.702;5.230;2023-02-12T08:06:18;9.40;99.90
27413;DHT22;14871;52.702;5.230;2023-02-12T08:08:45;9.40;99.90
27413;DHT22;14871;52.702;5.230;2023-02-12T08:11:12;9.60;99.90
27413;DHT22;14871;52.702;5.230;2023-02-12T08:13:38;9.50;99.90
27413;DHT22;14871;52.702;5.230;2023-02-12T08:16:07;9.40;99.90
27413;DHT22;14871;52.702;5.230;2023-02-12T08:18:33;9.50;99.90
27413;DHT22;14871;52.702;5.230;2023-02-12T08:21:03;9.50;99.90
27413;DHT22;14871;52.702;5.230;2023-02-12T08:23:29;9.60;99.90
27413;DHT22;14871;52.702;5.230;2023-02-12T08:26:03;9.60;99.90
27413;DHT22;14871;52.702;5.230;2023-02-12T08:28:28;9.50;99.90
27413;DHT22;14871;52.702;5.230;2023-02-12T08:31:02;9.50;99.90
27413;DHT22;14871;52.702;5.230;2023-02-12T08:33:27;9.50;99.90
27413;DHT22;14871;52.702;5.230;2023-02-12T08:36:05;9.50;99.90
27413;DHT22;14871;52.702;5.230;2023-02-12T08:38:32;9.50;99.90
27413;DHT22;14871;52.702;5.230;2023-02-12T08:41:06;9.70;99.90
27413;DHT22;14871;52.702;5.230;2023-02-12T08:43:33;9.70;99.90
27413;DHT22;14871;52.702;5.230;2023-02-12T08:48:32;9.70;99.90
27413;DHT22;14871;52.702;5.230;2023-02-12T08:51:16;9.70;99.90
27413;DHT22;14871;52.702;5.230;2023-02-12T08:53:44;9.70;99.90
27413;DHT22;14871;52.702;5.230;2023-02-12T08:56:11;9.70;99.90
27413;DHT22;14871;52.702;5.230;2023-02-12T08:58:37;9.80;99.90
27413;DHT22;14871;52.702;5.230;2023-02-12T09:01:04;9.70;99.90
27413;DHT22;14871;52.702;5.230;2023-02-12T09:03:30;9.70;99.90
27413;DHT22;14871;52.702;5.230;2023-02-12T09:05:56;9.70;99.90
27413;DHT22;14871;52.702;5.230;2023-02-12T09:08:21;9.80;99.90
27413;DHT22;14871;52.702;5.230;2023-02-12T09:10:47;9.70;99.90
27413;DHT22;14871;52.702;5.230;2023-02-12T09:13:13;9.70;99.90
27413;DHT22;14871;52.702;5.230;2023-02-12T09:15:41;9.80;99.90
27413;DHT22;14871;52.702;5.230;2023-02-12T09:18:07;9.80;99.90
27413;DHT22;14871;52.702;5.230;2023-02-12T09:20:36;9.70;99.90
27413;DHT22;14871;52.702;5.230;2023-02-12T09:23:03;9.80;99.90
27413;DHT22;14871;52.702;5.230;2023-02-12T09:25:28;9.70;99.90
27413;DHT22;14871;52.702;5.230;2023-02-12T09:27:55;9.90;99.90
27413;DHT22;14871;52.702;5.230;2023-02-12T09:30:21;9.80;99.90
27413;DHT22;14871;52.702;5.230;2023-02-12T09:32:47;9.80;99.90
27413;DHT22;14871;52.702;5.230;2023-02-12T09:35:12;9.90;99.90
27413;DHT22;14871;52.702;5.230;2023-02-12T09:37:38;9.90;99.90
27413;DHT22;14871;52.702;5.230;2023-02-12T09:40:17;9.90;99.90
27413;DHT22;14871;52.702;5.230;2023-02-12T09:43:16;10.00;99.90
27413;DHT22;14871;52.702;5.230;2023-02-12T09:45:56;9.90;99.90
27413;DHT22;14871;52.702;5.230;2023-02-12T09:48:58;9.90;99.90
27413;DHT22;14871;52.702;5.230;2023-02-12T09:51:27;10.00;99.90
27413;DHT22;14871;52.702;5.230;2023-02-12T09:54:01;10.00;99.90
27413;DHT22;14871;52.702;5.230;2023-02-12T09:56:28;10.10;99.90
27413;DHT22;14871;52.702;5.230;2023-02-12T09:58:58;10.10;99.90
27413;DHT22;14871;52.702;5.230;2023-02-12T10:01:26;10.10;99.90
27413;DHT22;14871;52.702;5.230;2023-02-12T10:03:53;10.20;99.90
27413;DHT22;14871;52.702;5.230;2023-02-12T10:08:50;10.20;99.90
27413;DHT22;14871;52.702;5.230;2023-02-12T10:13:50;10.30;99.90
27413;DHT22;14871;52.702;5.230;2023-02-12T10:22:25;10.40;99.90
27413;DHT22;14871;52.702;5.230;2023-02-12T10:27:45;10.50;99.90
27413;DHT22;14871;52.702;5.230;2023-02-12T10:32:42;10.60;99.90
27413;DHT22;14871;52.702;5.230;2023-02-12T10:35:13;10.50;99.90
27413;DHT22;14871;52.702;5.230;2023-02-12T10:37:43;10.70;99.90
27413;DHT22;14871;52.702;5.230;2023-02-12T10:40:24;10.70;99.90
27413;DHT22;14871;52.702;5.230;2023-02-12T10:42:53;10.60;99.90
27413;DHT22;14871;52.702;5.230;2023-02-12T10:45:40;10.60;99.90
27413;DHT22;14871;52.702;5.230;2023-02-12T10:48:20;10.70;99.90
27413;DHT22;14871;52.702;5.230;2023-02-12T10:53:28;10.80;99.90
27413;DHT22;14871;52.702;5.230;2023-02-12T10:56:15;10.80;99.90
27413;DHT22;14871;52.702;5.230;2023-02-12T11:01:28;10.90;99.90
27413;DHT22;14871;52.702;5.230;2023-02-12T11:03:55;10.90;99.90
27413;DHT22;14871;52.702;5.230;2023-02-12T11:06:27;11.00;99.90
27413;DHT22;14871;52.702;5.230;2023-02-12T11:08:54;11.00;99.90
27413;DHT22;14871;52.702;5.230;2023-02-12T11:11:35;10.90;99.90
27413;DHT22;14871;52.702;5.230;2023-02-12T11:14:05;10.90;99.90
27413;DHT22;14871;52.702;5.230;2023-02-12T11:16:34;11.00;99.90
27413;DHT22;14871;52.702;5.230;2023-02-12T11:19:06;11.00;99.90
27413;DHT22;14871;52.702;5.230;2023-02-12T11:21:33;11.20;99.90
27413;DHT22;14871;52.702;5.230;2023-02-12T11:24:28;11.20;99.90
27413;DHT22;14871;52.702;5.230;2023-02-12T11:27:11;11.20;99.90
27413;DHT22;14871;52.702;5.230;2023-02-12T11:29:37;11.10;99.90
27413;DHT22;14871;52.702;5.230;2023-02-12T11:32:05;11.10;99.90
27413;DHT22;14871;52.702;5.230;2023-02-12T11:34:35;11.20;99.90
27413;DHT22;14871;52.702;5.230;2023-02-12T11:37:01;11.30;99.90
27413;DHT22;14871;52.702;5.230;2023-02-12T11:39:29;11.20;99.90
27413;DHT22;14871;52.702;5.230;2023-02-12T11:42:05;11.20;99.90
27413;DHT22;14871;52.702;5.230;2023-02-12T11:44:41;11.30;99.90
27413;DHT22;14871;52.702;5.230;2023-02-12T11:47:09;11.30;99.90
27413;DHT22;14871;52.702;5.230;2023-02-12T11:52:48;11.30;99.90
27413;DHT22;14871;52.702;5.230;2023-02-12T11:55:24;11.20;99.90
27413;DHT22;14871;52.702;5.230;2023-02-12T11:57:52;11.40;99.90
27413;DHT22;14871;52.702;5.230;2023-02-12T12:00:27;11.40;99.90
27413;DHT22;14871;52.702;5.230;2023-02-12T12:03:06;11.40;99.90
27413;DHT22;14871;52.702;5.230;2023-02-12T12:05:39;11.50;99.90
27413;DHT22;14871;52.702;5.230;2023-02-12T12:14:03;11.40;99.90
27413;DHT22;14871;52.702;5.230;2023-02-12T12:16:37;11.40;99.90
27413;DHT22;14871;52.702;5.230;2023-02-12T12:19:28;11.40;99.90
27413;DHT22;14871;52.702;5.230;2023-02-12T12:22:25;11.30;99.90
27413;DHT22;14871;52.702;5.230;2023-02-12T12:25:07;11.30;99.90
27413;DHT22;14871;52.702;5.230;2023-02-12T12:41:21;11.50;99.90
27413;DHT22;14871;52.702;5.230;2023-02-12T12:44:03;11.60;99.90
27413;DHT22;14871;52.702;5.230;2023-02-12T12:46:48;11.60;99.90
27413;DHT22;14871;52.702;5.230;2023-02-12T12:52:21;11.50;99.90
27413;DHT22;14871;52.702;5.230;2023-02-12T12:55:03;11.60;99.90
27413;DHT22;14871;52.702;5.230;2023-02-12T13:05:52;11.70;99.90
27413;DHT22;14871;52.702;5.230;2023-02-12T13:11:39;11.70;99.90
27413;DHT22;14871;52.702;5.230;2023-02-12T13:16:58;11.60;99.90
27413;DHT22;14871;52.702;5.230;2023-02-12T13:19:59;11.50;99.90
27413;DHT22;14871;52.702;5.230;2023-02-12T13:27:59;11.50;99.90
27413;DHT22;14871;52.702;5.230;2023-02-12T13:30:38;11.40;99.90
27413;DHT22;14871;52.702;5.230;2023-02-12T13:35:42;11.50;99.90
27413;DHT22;14871;52.702;5.230;2023-02-12T13:38:24;11.40;99.90
27413;DHT22;14871;52.702;5.230;2023-02-12T13:40:55;11.40;99.90
27413;DHT22;14871;52.702;5.230;2023-02-12T13:49:12;11.30;99.90
27413;DHT22;14871;52.702;5.230;2023-02-12T13:51:56;11.50;99.90
27413;DHT22;14871;52.702;5.230;2023-02-12T13:54:54;11.40;99.90
27413;DHT22;14871;52.702;5.230;2023-02-12T13:57:21;11.40;99.90
27413;DHT22;14871;52.702;5.230;2023-02-12T13:59:54;11.40;99.90
27413;DHT22;14871;52.702;5.230;2023-02-12T14:07:49;11.50;99.90
27413;DHT22;14871;52.702;5.230;2023-02-12T14:13:16;11.40;99.90
27413;DHT22;14871;52.702;5.230;2023-02-12T14:15:49;11.40;99.90
27413;DHT22;14871;52.702;5.230;2023-02-12T14:18:42;11.30;99.90
27413;DHT22;14871;52.702;5.230;2023-02-12T14:23:40;11.30;99.90
27413;DHT22;14871;52.702;5.230;2023-02-12T14:26:13;11.50;99.90
27413;DHT22;14871;52.702;5.230;2023-02-12T14:33:44;11.60;99.90
27413;DHT22;14871;52.702;5.230;2023-02-12T14:41:37;11.50;99.90
27413;DHT22;14871;52.702;5.230;2023-02-12T14:46:56;11.50;99.90
27413;DHT22;14871;52.702;5.230;2023-02-12T14:49:35;11.50;99.90
27413;DHT22;14871;52.702;5.230;2023-02-12T14:54:51;11.30;99.90
27413;DHT22;14871;52.702;5.230;2023-02-12T14:59:58;11.40;99.90
27413;DHT22;14871;52.702;5.230;2023-02-12T15:02:28;11.30;99.90
27413;DHT22;14871;52.702;5.230;2023-02-12T15:05:02;11.30;99.90
27413;DHT22;14871;52.702;5.230;2023-02-12T15:07:34;11.40;99.90
27413;DHT22;14871;52.702;5.230;2023-02-12T15:10:14;11.30;99.90
27413;DHT22;14871;52.702;5.230;2023-02-12T15:12:47;11.40;99.90
27413;DHT22;14871;52.702;5.230;2023-02-12T15:15:24;11.30;99.90
27413;DHT22;14871;52.702;5.230;2023-02-12T15:18:06;11.40;99.90
27413;DHT22;14871;52.702;5.230;2023-02-12T15:20:51;11.30;99.90
27413;DHT22;14871;52.702;5.230;2023-02-12T15:23:39;11.20;99.90
27413;DHT22;14871;52.702;5.230;2023-02-12T15:26:14;11.10;99.90
27413;DHT22;14871;52.702;5.230;2023-02-12T15:28:41;11.10;99.90
27413;DHT22;14871;52.702;5.230;2023-02-12T15:31:15;11.20;99.90
27413;DHT22;14871;52.702;5.230;2023-02-12T15:33:45;11.30;99.90
27413;DHT22;14871;52.702;5.230;2023-02-12T15:36:19;11.40;99.90
27413;DHT22;14871;52.702;5.230;2023-02-12T15:39:14;11.40;99.90
27413;DHT22;14871;52.702;5.230;2023-02-12T15:41:37;11.30;99.90
27413;DHT22;14871;52.702;5.230;2023-02-12T15:44:29;11.30;99.90
27413;DHT22;14871;52.702;5.230;2023-02-12T15:47:02;11.30;99.90
27413;DHT22;14871;52.702;5.230;2023-02-12T15:49:36;11.20;99.90
27413;DHT22;14871;52.702;5.230;2023-02-12T15:52:10;11.20;99.90
27413;DHT22;14871;52.702;5.230;2023-02-12T15:54:42;11.30;99.90
27413;DHT22;14871;52.702;5.230;2023-02-12T15:57:11;11.40;99.90
27413;DHT22;14871;52.702;5.230;2023-02-12T15:59:37;11.30;99.90
27413;DHT22;14871;52.702;5.230;2023-02-12T16:02:20;11.40;99.90
27413;DHT22;14871;52.702;5.230;2023-02-12T16:04:47;11.40;99.90
27413;DHT22;14871;52.702;5.230;2023-02-12T16:07:13;11.40;99.90
27413;DHT22;14871;52.702;5.230;2023-02-12T16:09:40;11.40;99.90
27413;DHT22;14871;52.702;5.230;2023-02-12T16:12:11;11.40;99.90
27413;DHT22;14871;52.702;5.230;2023-02-12T16:14:47;11.30;99.90
27413;DHT22;14871;52.702;5.230;2023-02-12T16:17:45;11.30;99.90
27413;DHT22;14871;52.702;5.230;2023-02-12T16:22:41;11.10;99.90
27413;DHT22;14871;52.702;5.230;2023-02-12T16:25:23;11.10;99.90
27413;DHT22;14871;52.702;5.230;2023-02-12T16:27:59;11.10;99.90
27413;DHT22;14871;52.702;5.230;2023-02-12T16:30:26;10.90;99.90
27413;DHT22;14871;52.702;5.230;2023-02-12T16:32:53;11.00;99.90
27413;DHT22;14871;52.702;5.230;2023-02-12T16:35:37;11.00;99.90
27413;DHT22;14871;52.702;5.230;2023-02-12T16:38:39;11.00;99.90
27413;DHT22;14871;52.702;5.230;2023-02-12T16:43:49;11.10;99.90
27413;DHT22;14871;52.702;5.230;2023-02-12T16:46:18;11.20;99.90
27413;DHT22;14871;52.702;5.230;2023-02-12T16:48:48;11.10;99.90
27413;DHT22;14871;52.702;5.230;2023-02-12T16:51:27;11.20;99.90
27413;DHT22;14871;52.702;5.230;2023-02-12T16:53:56;11.30;99.90
27413;DHT22;14871;52.702;5.230;2023-02-12T16:56:24;11.30;99.90
27413;DHT22;14871;52.702;5.230;2023-02-12T16:58:52;11.20;99.90
27413;DHT22;14871;52.702;5.230;2023-02-12T17:01:40;11.20;99.90
27413;DHT22;14871;52.702;5.230;2023-02-12T17:04:09;11.10;99.90
27413;DHT22;14871;52.702;5.230;2023-02-12T17:06:38;11.10;99.90
27413;DHT22;14871;52.702;5.230;2023-02-12T17:09:04;11.10;99.90
27413;DHT22;14871;52.702;5.230;2023-02-12T17:11:29;11.10;99.90
27413;DHT22;14871;52.702;5.230;2023-02-12T17:13:55;11.10;99.90
27413;DHT22;14871;52.702;5.230;2023-02-12T17:16:21;11.10;99.90
27413;DHT22;14871;52.702;5.230;2023-02-12T17:18:47;11.10;99.90
27413;DHT22;14871;52.702;5.230;2023-02-12T17:21:29;11.10;99.90
27413;DHT22;14871;52.702;5.230;2023-02-12T17:23:54;11.10;99.90
27413;DHT22;14871;52.702;5.230;2023-02-12T17:26:21;11.10;99.90
27413;DHT22;14871;52.702;5.230;2023-02-12T17:28:47;11.10;99.90
27413;DHT22;14871;52.702;5.230;2023-02-12T17:31:13;11.00;99.90
27413;DHT22;14871;52.702;5.230;2023-02-12T17:33:38;11.10;99.90
27413;DHT22;14871;52.702;5.230;2023-02-12T17:36:04;11.10;99.90
27413;DHT22;14871;52.702;5.230;2023-02-12T17:38:30;11.10;99.90
27413;DHT22;14871;52.702;5.230;2023-02-12T17:40:56;11.00;99.90
27413;DHT22;14871;52.702;5.230;2023-02-12T17:43:22;11.10;99.90
27413;DHT22;14871;52.702;5.230;2023-02-12T17:45:47;11.00;99.90
27413;DHT22;14871;52.702;5.230;2023-02-12T17:48:15;10.90;99.90
27413;DHT22;14871;52.702;5.230;2023-02-12T17:50:41;10.90;99.90
27413;DHT22;14871;52.702;5.230;2023-02-12T17:53:07;11.00;99.90
27413;DHT22;14871;52.702;5.230;2023-02-12T17:55:37;11.00;99.90
27413;DHT22;14871;52.702;5.230;2023-02-12T17:58:04;10.90;99.90
27413;DHT22;14871;52.702;5.230;2023-02-12T18:00:30;11.00;99.90
27413;DHT22;14871;52.702;5.230;2023-02-12T18:02:55;10.90;99.90
27413;DHT22;14871;52.702;5.230;2023-02-12T18:05:21;10.90;99.90
27413;DHT22;14871;52.702;5.230;2023-02-12T18:07:47;10.90;99.90
27413;DHT22;14871;52.702;5.230;2023-02-12T18:10:12;10.80;99.90
27413;DHT22;14871;52.702;5.230;2023-02-12T18:12:38;10.90;99.90
27413;DHT22;14871;52.702;5.230;2023-02-12T18:15:05;10.90;99.90
27413;DHT22;14871;52.702;5.230;2023-02-12T18:17:31;10.80;99.90
27413;DHT22;14871;52.702;5.230;2023-02-12T18:19:57;10.80;99.90
27413;DHT22;14871;52.702;5.230;2023-02-12T18:22:23;10.80;99.90
27413;DHT22;14871;52.702;5.230;2023-02-12T18:24:48;10.80;99.90
27413;DHT22;14871;52.702;5.230;2023-02-12T18:27:14;10.80;99.90
27413;DHT22;14871;52.702;5.230;2023-02-12T18:29:40;10.80;99.90
27413;DHT22;14871;52.702;5.230;2023-02-12T18:32:06;10.80;99.90
27413;DHT22;14871;52.702;5.230;2023-02-12T18:34:32;10.90;99.90
27413;DHT22;14871;52.702;5.230;2023-02-12T18:36:58;10.80;99.90
27413;DHT22;14871;52.702;5.230;2023-02-12T18:39:23;10.90;99.90